createdAt,value
2023-05-20T00:00:10.413Z,33.58
2023-05-20T00:01:10.390Z,33.56
2023-05-20T00:02:10.369Z,33.52
2023-05-20T00:03:10.499Z,33.56
2023-05-20T00:04:10.686Z,33.56
2023-05-20T00:05:10.524Z,33.58
2023-05-20T00:06:10.552Z,33.54
2023-05-20T00:07:10.582Z,33.58
2023-05-20T00:08:10.662Z,33.59
2023-05-20T00:09:10.661Z,33.58
2023-05-20T00:10:10.730Z,33.59
2023-05-20T00:11:10.780Z,33.59
2023-05-20T00:12:10.825Z,33.62
2023-05-20T00:13:10.874Z,33.55
2023-05-20T00:14:10.888Z,33.59
2023-05-20T00:15:10.971Z,33.55
2023-05-20T00:16:11.027Z,33.56
2023-05-20T00:17:11.017Z,33.55
2023-05-20T00:18:11.155Z,33.55
2023-05-20T00:19:11.196Z,33.56
2023-05-20T00:20:11.176Z,33.57
2023-05-20T00:21:11.246Z,33.56
2023-05-20T00:22:11.301Z,33.55
2023-05-20T00:23:11.326Z,33.57
2023-05-20T00:24:11.359Z,33.55
2023-05-20T00:25:11.442Z,33.55
2023-05-20T00:26:11.453Z,33.55
2023-05-20T00:27:11.484Z,33.54
2023-05-20T00:28:11.541Z,33.59
2023-05-20T00:29:11.574Z,33.59
2023-05-20T00:30:11.625Z,33.53
2023-05-20T00:31:11.667Z,33.56
2023-05-20T00:32:11.756Z,33.52
2023-05-20T00:33:11.831Z,33.54
2023-05-20T00:34:11.825Z,33.56
2023-05-20T00:35:11.891Z,33.59
2023-05-20T00:36:11.918Z,33.55
2023-05-20T00:37:11.973Z,33.54
2023-05-20T00:38:11.990Z,33.55
2023-05-20T00:39:12.049Z,33.53
2023-05-20T00:40:13.081Z,33.57
2023-05-20T00:41:12.123Z,33.60
2023-05-20T00:42:12.080Z,33.57
2023-05-20T00:43:12.102Z,33.54
2023-05-20T00:44:12.053Z,33.57
2023-05-20T00:45:12.078Z,33.58
2023-05-20T00:46:12.082Z,33.57
2023-05-20T00:47:12.051Z,33.56
2023-05-20T00:48:12.084Z,33.58
2023-05-20T00:49:12.054Z,33.56
2023-05-20T00:50:12.047Z,33.56
2023-05-20T00:51:12.001Z,33.58
2023-05-20T00:52:12.021Z,33.54
2023-05-20T00:53:12.909Z,33.53
2023-05-20T00:54:11.987Z,33.54
2023-05-20T00:55:11.997Z,33.53
2023-05-20T00:56:11.981Z,33.57
2023-05-20T00:57:11.981Z,33.52
2023-05-20T00:58:11.971Z,33.57
2023-05-20T00:59:11.954Z,33.60
2023-05-20T01:00:11.971Z,33.58
2023-05-20T01:01:11.977Z,33.59
2023-05-20T01:02:12.070Z,33.57
2023-05-20T01:03:12.081Z,33.60
2023-05-20T01:04:11.948Z,33.60
2023-05-20T01:05:11.928Z,33.61
2023-05-20T01:06:11.933Z,33.54
2023-05-20T01:07:11.892Z,33.54
2023-05-20T01:08:11.931Z,33.56
2023-05-20T01:09:11.863Z,33.56
2023-05-20T01:10:11.885Z,33.58
2023-05-20T01:11:11.877Z,33.57
2023-05-20T01:12:11.906Z,33.58
2023-05-20T01:13:11.850Z,33.58
2023-05-20T01:14:11.861Z,33.60
2023-05-20T01:15:11.874Z,33.56
2023-05-20T01:16:12.040Z,33.61
2023-05-20T01:17:11.928Z,33.56
2023-05-20T01:18:12.013Z,33.60
2023-05-20T01:19:12.034Z,33.57
2023-05-20T01:20:12.051Z,33.58
2023-05-20T01:21:12.132Z,33.58
2023-05-20T01:22:12.168Z,33.58
2023-05-20T01:23:12.207Z,33.53
2023-05-20T01:24:12.236Z,33.56
2023-05-20T01:25:12.294Z,33.57
2023-05-20T01:26:12.346Z,33.57
2023-05-20T01:27:12.385Z,33.57
2023-05-20T01:28:12.427Z,33.57
2023-05-20T01:29:12.491Z,33.58
2023-05-20T01:30:12.529Z,33.54
2023-05-20T01:31:12.642Z,33.58
2023-05-20T01:32:12.636Z,33.56
2023-05-20T01:33:12.774Z,33.51
2023-05-20T01:34:12.753Z,33.57
2023-05-20T01:35:12.822Z,33.57
2023-05-20T01:36:12.885Z,33.57
2023-05-20T01:37:12.927Z,33.57
2023-05-20T01:38:12.984Z,33.57
2023-05-20T01:39:13.016Z,33.58
2023-05-20T01:40:13.072Z,33.58
2023-05-20T01:41:13.118Z,33.58
2023-05-20T01:42:13.166Z,33.62
2023-05-20T01:43:13.425Z,33.54
2023-05-20T01:44:13.291Z,33.58
2023-05-20T01:45:13.340Z,33.61
2023-05-20T01:46:13.432Z,33.56
2023-05-20T01:47:13.413Z,33.54
2023-05-20T01:48:13.476Z,33.54
2023-05-20T01:49:13.531Z,33.54
2023-05-20T01:50:13.594Z,33.56
2023-05-20T01:51:13.621Z,33.55
2023-05-20T01:52:13.681Z,33.58
2023-05-20T01:53:13.729Z,33.58
2023-05-20T01:54:13.775Z,33.60
2023-05-20T01:55:13.833Z,33.58
2023-05-20T01:56:13.849Z,33.60
2023-05-20T01:57:13.934Z,33.58
2023-05-20T01:58:13.968Z,33.56
2023-05-20T01:59:14.023Z,33.58
2023-05-20T02:00:14.074Z,33.59
2023-05-20T02:01:14.148Z,33.62
2023-05-20T02:02:14.199Z,33.57
2023-05-20T02:03:14.309Z,33.58
2023-05-20T02:04:14.302Z,33.59
2023-05-20T02:05:14.386Z,33.55
2023-05-20T02:06:14.462Z,33.58
2023-05-20T02:07:14.436Z,33.61
2023-05-20T02:08:14.488Z,33.62
2023-05-20T02:09:14.529Z,33.55
2023-05-20T02:10:14.720Z,33.59
2023-05-20T02:11:14.759Z,33.62
2023-05-20T02:12:14.733Z,33.63
2023-05-20T02:13:14.818Z,33.62
2023-05-20T02:14:14.881Z,33.60
2023-05-20T02:15:14.903Z,33.55
2023-05-20T02:16:15.007Z,33.57
2023-05-20T02:17:14.993Z,33.60
2023-05-20T02:18:15.086Z,33.61
2023-05-20T02:19:15.159Z,33.55
2023-05-20T02:20:15.158Z,33.59
2023-05-20T02:21:15.236Z,33.55
2023-05-20T02:22:15.260Z,33.59
2023-05-20T02:23:15.315Z,33.59
2023-05-20T02:24:15.371Z,33.58
2023-05-20T02:25:15.419Z,33.58
2023-05-20T02:26:15.473Z,33.55
2023-05-20T02:27:15.535Z,33.58
2023-05-20T02:28:15.593Z,33.59
2023-05-20T02:29:15.621Z,33.59
2023-05-20T02:30:15.685Z,33.58
2023-05-20T02:31:15.721Z,33.55
2023-05-20T02:32:15.822Z,33.61
2023-05-20T02:33:15.892Z,33.62
2023-05-20T02:34:15.905Z,33.61
2023-05-20T02:35:15.960Z,33.56
2023-05-20T02:36:15.952Z,33.58
2023-05-20T02:37:15.969Z,33.65
2023-05-20T02:38:15.958Z,33.62
2023-05-20T02:39:16.017Z,33.56
2023-05-20T02:40:16.011Z,33.57
2023-05-20T02:41:16.062Z,33.58
2023-05-20T02:42:16.064Z,33.52
2023-05-20T02:43:16.108Z,33.55
2023-05-20T02:44:16.082Z,33.62
2023-05-20T02:45:16.079Z,33.54
2023-05-20T02:46:17.017Z,33.56
2023-05-20T02:47:16.136Z,33.55
2023-05-20T02:48:16.140Z,33.58
2023-05-20T02:49:16.163Z,33.58
2023-05-20T02:50:16.189Z,33.58
2023-05-20T02:51:16.210Z,33.55
2023-05-20T02:52:16.216Z,33.58
2023-05-20T02:53:16.260Z,33.54
2023-05-20T02:54:16.252Z,33.56
2023-05-20T02:55:16.257Z,33.63
2023-05-20T02:56:16.261Z,33.55
2023-05-20T02:57:16.296Z,33.56
2023-05-20T02:58:16.297Z,33.58
2023-05-20T02:59:16.300Z,33.59
2023-05-20T03:00:18.056Z,33.56
2023-05-20T03:01:16.408Z,33.63
2023-05-20T03:02:16.394Z,33.59
2023-05-20T03:03:16.395Z,33.59
2023-05-20T03:04:16.446Z,33.55
2023-05-20T03:05:16.427Z,33.57
2023-05-20T03:06:16.477Z,33.59
2023-05-20T03:07:16.464Z,33.58
2023-05-20T03:08:16.494Z,33.55
2023-05-20T03:09:16.506Z,33.55
2023-05-20T03:10:16.530Z,33.59
2023-05-20T03:11:16.557Z,33.54
2023-05-20T03:12:16.540Z,33.55
2023-05-20T03:13:16.576Z,33.56
2023-05-20T03:14:16.607Z,33.60
2023-05-20T03:15:16.595Z,33.57
2023-05-20T03:16:16.651Z,33.58
2023-05-20T03:17:16.657Z,33.55
2023-05-20T03:18:16.685Z,33.56
2023-05-20T03:19:16.725Z,33.55
2023-05-20T03:20:16.718Z,33.56
2023-05-20T03:21:16.732Z,33.53
2023-05-20T03:22:16.755Z,33.65
2023-05-20T03:23:16.792Z,33.59
2023-05-20T03:24:16.803Z,33.57
2023-05-20T03:25:16.844Z,33.59
2023-05-20T03:26:16.856Z,33.57
2023-05-20T03:27:16.864Z,33.57
2023-05-20T03:28:16.922Z,33.59
2023-05-20T03:29:16.919Z,33.60
2023-05-20T03:30:16.943Z,33.57
2023-05-20T03:31:16.973Z,33.60
2023-05-20T03:32:17.027Z,33.59
2023-05-20T03:33:17.032Z,33.60
2023-05-20T03:34:17.039Z,33.60
2023-05-20T03:35:17.042Z,33.62
2023-05-20T03:36:17.073Z,33.60
2023-05-20T03:37:17.104Z,33.57
2023-05-20T03:38:17.140Z,33.56
2023-05-20T03:39:17.149Z,33.57
2023-05-20T03:40:17.190Z,33.59
2023-05-20T03:41:17.208Z,33.57
2023-05-20T03:42:17.215Z,33.53
2023-05-20T03:43:17.298Z,33.59
2023-05-20T03:44:17.308Z,33.59
2023-05-20T03:45:17.345Z,33.56
2023-05-20T03:46:17.351Z,33.57
2023-05-20T03:47:17.414Z,33.56
2023-05-20T03:48:17.367Z,33.59
2023-05-20T03:49:17.450Z,33.57
2023-05-20T03:50:17.421Z,33.59
2023-05-20T03:51:17.481Z,33.55
2023-05-20T03:52:17.466Z,33.55
2023-05-20T03:53:17.538Z,33.58
2023-05-20T03:54:17.547Z,33.53
2023-05-20T03:55:17.551Z,33.56
2023-05-20T03:56:17.585Z,33.55
2023-05-20T03:57:17.605Z,33.52
2023-05-20T03:58:17.670Z,33.56
2023-05-20T03:59:17.674Z,33.61
2023-05-20T04:00:17.688Z,33.55
2023-05-20T04:01:18.488Z,33.56
2023-05-20T04:02:17.930Z,33.56
2023-05-20T04:03:17.893Z,33.55
2023-05-20T04:04:17.918Z,33.55
2023-05-20T04:05:17.853Z,33.53
2023-05-20T04:06:17.901Z,33.52
2023-05-20T04:07:17.915Z,33.60
2023-05-20T04:08:17.912Z,33.56
2023-05-20T04:09:17.950Z,33.52
2023-05-20T04:10:17.988Z,33.56
2023-05-20T04:11:17.969Z,33.53
2023-05-20T04:12:18.048Z,33.53
2023-05-20T04:13:18.090Z,33.53
2023-05-20T04:14:18.084Z,33.55
2023-05-20T04:15:18.117Z,33.52
2023-05-20T04:16:18.158Z,33.53
2023-05-20T04:17:18.179Z,33.53
2023-05-20T04:18:18.172Z,33.56
2023-05-20T04:19:18.477Z,33.57
2023-05-20T04:20:18.244Z,33.52
2023-05-20T04:21:18.219Z,33.56
2023-05-20T04:22:18.280Z,33.52
2023-05-20T04:23:18.297Z,33.52
2023-05-20T04:24:18.278Z,33.49
2023-05-20T04:25:18.324Z,33.56
2023-05-20T04:26:18.352Z,33.51
2023-05-20T04:27:18.398Z,33.55
2023-05-20T04:28:18.429Z,33.51
2023-05-20T04:29:18.453Z,33.51
2023-05-20T04:30:18.473Z,33.51
2023-05-20T04:31:18.604Z,33.52
2023-05-20T04:32:18.618Z,33.56
2023-05-20T04:33:18.593Z,33.53
2023-05-20T04:34:18.543Z,33.53
2023-05-20T04:35:18.576Z,33.55
2023-05-20T04:36:18.610Z,33.51
2023-05-20T04:37:18.649Z,33.48
2023-05-20T04:38:18.666Z,33.52
2023-05-20T04:39:18.690Z,33.51
2023-05-20T04:40:18.689Z,33.46
2023-05-20T04:41:18.714Z,33.48
2023-05-20T04:42:18.740Z,33.47
2023-05-20T04:43:18.733Z,33.52
2023-05-20T04:44:18.755Z,33.49
2023-05-20T04:45:18.779Z,33.49
2023-05-20T04:46:18.833Z,33.48
2023-05-20T04:47:18.850Z,33.51
2023-05-20T04:48:18.828Z,33.44
2023-05-20T04:49:18.847Z,33.49
2023-05-20T04:50:18.854Z,33.48
2023-05-20T04:51:18.899Z,33.47
2023-05-20T04:52:18.938Z,33.51
2023-05-20T04:53:18.941Z,33.44
2023-05-20T04:54:18.948Z,33.52
2023-05-20T04:55:18.952Z,33.48
2023-05-20T04:56:19.003Z,33.52
2023-05-20T04:57:19.032Z,33.45
2023-05-20T04:58:19.038Z,33.48
2023-05-20T04:59:19.038Z,33.51
2023-05-20T05:00:19.078Z,33.51
2023-05-20T05:01:19.145Z,33.44
2023-05-20T05:02:19.082Z,33.44
2023-05-20T05:03:19.129Z,33.48
2023-05-20T05:04:19.150Z,33.45
2023-05-20T05:05:19.173Z,33.45
2023-05-20T05:06:19.198Z,33.48
2023-05-20T05:07:19.169Z,33.44
2023-05-20T05:08:19.233Z,33.44
2023-05-20T05:09:19.209Z,33.43
2023-05-20T05:10:19.234Z,33.43
2023-05-20T05:11:19.243Z,33.47
2023-05-20T05:12:19.301Z,33.45
2023-05-20T05:13:19.327Z,33.47
2023-05-20T05:14:19.314Z,33.44
2023-05-20T05:15:19.347Z,33.41
2023-05-20T05:16:19.431Z,33.44
2023-05-20T05:17:19.397Z,33.43
2023-05-20T05:18:19.431Z,33.45
2023-05-20T05:19:19.463Z,33.44
2023-05-20T05:20:19.453Z,33.45
2023-05-20T05:21:19.493Z,33.41
2023-05-20T05:22:19.494Z,33.43
2023-05-20T05:23:19.532Z,33.44
2023-05-20T05:24:19.531Z,33.48
2023-05-20T05:25:19.537Z,33.45
2023-05-20T05:26:19.606Z,33.44
2023-05-20T05:27:19.606Z,33.39
2023-05-20T05:28:19.638Z,33.43
2023-05-20T05:29:19.624Z,33.41
2023-05-20T05:30:19.687Z,33.43
2023-05-20T05:31:19.685Z,33.41
2023-05-20T05:32:19.763Z,33.40
2023-05-20T05:33:19.739Z,33.39
2023-05-20T05:34:19.750Z,33.45
2023-05-20T05:35:19.745Z,33.36
2023-05-20T05:36:19.770Z,33.40
2023-05-20T05:37:19.805Z,33.39
2023-05-20T05:38:19.788Z,33.40
2023-05-20T05:39:19.808Z,33.41
2023-05-20T05:40:19.820Z,33.38
2023-05-20T05:41:19.870Z,33.38
2023-05-20T05:42:19.903Z,33.40
2023-05-20T05:43:19.911Z,33.36
2023-05-20T05:44:19.922Z,33.38
2023-05-20T05:45:19.951Z,33.43
2023-05-20T05:46:19.987Z,33.39
2023-05-20T05:47:19.985Z,33.35
2023-05-20T05:48:19.986Z,33.36
2023-05-20T05:49:19.984Z,33.36
2023-05-20T05:50:19.981Z,33.36
2023-05-20T05:51:20.029Z,33.38
2023-05-20T05:52:20.033Z,33.39
2023-05-20T05:53:20.084Z,33.38
2023-05-20T05:54:20.069Z,33.38
2023-05-20T05:55:20.075Z,33.33
2023-05-20T05:56:20.105Z,33.38
2023-05-20T05:57:21.023Z,33.31
2023-05-20T05:58:20.139Z,33.33
2023-05-20T05:59:20.167Z,33.35
2023-05-20T06:00:20.157Z,33.38
2023-05-20T06:01:20.223Z,33.30
2023-05-20T06:02:20.302Z,33.32
2023-05-20T06:03:20.315Z,33.34
2023-05-20T06:04:20.268Z,33.28
2023-05-20T06:05:20.312Z,33.34
2023-05-20T06:06:20.291Z,33.32
2023-05-20T06:07:20.301Z,33.33
2023-05-20T06:08:20.307Z,33.34
2023-05-20T06:09:20.326Z,33.33
2023-05-20T06:10:20.341Z,33.31
2023-05-20T06:11:20.370Z,33.27
2023-05-20T06:12:20.377Z,33.28
2023-05-20T06:13:20.402Z,33.34
2023-05-20T06:14:20.422Z,33.31
2023-05-20T06:15:20.435Z,33.28
2023-05-20T06:16:20.485Z,33.38
2023-05-20T06:17:20.432Z,33.34
2023-05-20T06:18:20.499Z,33.30
2023-05-20T06:19:20.541Z,33.36
2023-05-20T06:20:20.501Z,33.28
2023-05-20T06:21:20.510Z,33.29
2023-05-20T06:22:20.552Z,33.31
2023-05-20T06:23:20.556Z,33.30
2023-05-20T06:24:22.346Z,33.31
2023-05-20T06:25:20.561Z,33.31
2023-05-20T06:26:20.571Z,33.33
2023-05-20T06:27:20.570Z,33.35
2023-05-20T06:28:20.526Z,33.30
2023-05-20T06:29:20.541Z,33.33
2023-05-20T06:30:20.498Z,33.33
2023-05-20T06:31:20.538Z,33.37
2023-05-20T06:32:20.504Z,33.33
2023-05-20T06:33:20.497Z,33.29
2023-05-20T06:34:20.483Z,33.33
2023-05-20T06:35:20.537Z,33.33
2023-05-20T06:36:20.484Z,33.31
2023-05-20T06:37:20.476Z,33.28
2023-05-20T06:38:20.512Z,33.33
2023-05-20T06:39:20.463Z,33.32
2023-05-20T06:40:20.433Z,33.29
2023-05-20T06:41:20.477Z,33.30
2023-05-20T06:42:20.427Z,33.27
2023-05-20T06:43:20.460Z,33.27
2023-05-20T06:44:20.456Z,33.27
2023-05-20T06:45:20.454Z,33.29
2023-05-20T06:46:20.486Z,33.27
2023-05-20T06:47:20.491Z,33.26
2023-05-20T06:48:20.462Z,33.27
2023-05-20T06:49:20.394Z,33.28
2023-05-20T06:50:20.410Z,33.28
2023-05-20T06:51:20.404Z,33.26
2023-05-20T06:52:20.390Z,33.24
2023-05-20T06:53:20.379Z,33.24
2023-05-20T06:54:20.381Z,33.24
2023-05-20T06:55:20.380Z,33.20
2023-05-20T06:56:20.357Z,33.24
2023-05-20T06:57:20.422Z,33.24
2023-05-20T06:58:20.349Z,33.24
2023-05-20T06:59:20.321Z,33.21
2023-05-20T07:00:20.329Z,33.25
2023-05-20T07:01:20.399Z,33.22
2023-05-20T07:02:20.307Z,33.18
2023-05-20T07:03:20.347Z,33.17
2023-05-20T07:04:20.387Z,33.21
2023-05-20T07:05:20.296Z,33.18
2023-05-20T07:06:20.297Z,33.21
2023-05-20T07:07:20.276Z,33.18
2023-05-20T07:08:20.272Z,33.22
2023-05-20T07:09:20.270Z,33.17
2023-05-20T07:10:20.236Z,33.18
2023-05-20T07:11:20.265Z,33.17
2023-05-20T07:12:20.235Z,33.15
2023-05-20T07:13:20.249Z,33.17
2023-05-20T07:14:20.213Z,33.20
2023-05-20T07:15:20.257Z,33.19
2023-05-20T07:16:20.285Z,33.20
2023-05-20T07:17:20.220Z,33.15
2023-05-20T07:18:20.229Z,33.19
2023-05-20T07:19:20.220Z,33.16
2023-05-20T07:20:20.167Z,33.12
2023-05-20T07:21:20.198Z,33.15
2023-05-20T07:22:20.171Z,33.13
2023-05-20T07:23:20.196Z,33.16
2023-05-20T07:24:20.173Z,33.16
2023-05-20T07:25:20.169Z,33.13
2023-05-20T07:26:20.151Z,33.13
2023-05-20T07:27:20.169Z,33.15
2023-05-20T07:28:20.166Z,33.16
2023-05-20T07:29:20.112Z,33.15
2023-05-20T07:30:20.180Z,33.12
2023-05-20T07:31:20.139Z,33.11
2023-05-20T07:32:20.186Z,33.16
2023-05-20T07:33:20.119Z,33.11
2023-05-20T07:34:20.100Z,33.12
2023-05-20T07:35:20.083Z,33.10
2023-05-20T07:36:20.114Z,33.14
2023-05-20T07:37:20.056Z,33.11
2023-05-20T07:38:20.081Z,33.14
2023-05-20T07:39:20.075Z,33.10
2023-05-20T07:40:20.040Z,33.11
2023-05-20T07:41:20.065Z,33.10
2023-05-20T07:42:20.072Z,33.08
2023-05-20T07:43:20.030Z,33.10
2023-05-20T07:44:20.025Z,33.13
2023-05-20T07:45:20.007Z,33.03
2023-05-20T07:46:20.368Z,33.07
2023-05-20T07:47:20.032Z,33.13
2023-05-20T07:48:20.032Z,33.11
2023-05-20T07:49:20.029Z,33.12
2023-05-20T07:50:19.982Z,33.11
2023-05-20T07:51:20.005Z,33.10
2023-05-20T07:52:19.979Z,33.10
2023-05-20T07:53:20.007Z,33.12
2023-05-20T07:54:19.987Z,33.11
2023-05-20T07:55:19.941Z,33.12
2023-05-20T07:56:19.927Z,33.10
2023-05-20T07:57:19.958Z,33.09
2023-05-20T07:58:19.933Z,33.10
2023-05-20T07:59:19.934Z,33.07
2023-05-20T08:00:19.924Z,33.10
2023-05-20T08:01:19.900Z,33.06
2023-05-20T08:02:19.975Z,33.05
2023-05-20T08:03:20.026Z,33.09
2023-05-20T08:04:19.949Z,33.06
2023-05-20T08:05:19.911Z,33.06
2023-05-20T08:06:19.888Z,33.02
2023-05-20T08:07:19.888Z,33.06
2023-05-20T08:08:19.845Z,33.02
2023-05-20T08:09:19.875Z,33.04
2023-05-20T08:10:19.856Z,33.01
2023-05-20T08:11:19.877Z,33.05
2023-05-20T08:12:19.870Z,33.04
2023-05-20T08:13:19.868Z,33.05
2023-05-20T08:14:19.806Z,33.05
2023-05-20T08:15:19.822Z,33.04
2023-05-20T08:16:19.857Z,33.01
2023-05-20T08:17:19.897Z,33.04
2023-05-20T08:18:19.809Z,33.01
2023-05-20T08:19:19.831Z,33.00
2023-05-20T08:20:19.810Z,33.01
2023-05-20T08:21:19.798Z,33.01
2023-05-20T08:22:19.788Z,33.02
2023-05-20T08:23:19.761Z,33.00
2023-05-20T08:24:19.759Z,32.97
2023-05-20T08:25:19.731Z,32.96
2023-05-20T08:26:19.766Z,32.98
2023-05-20T08:27:19.746Z,32.97
2023-05-20T08:28:19.741Z,32.97
2023-05-20T08:29:19.713Z,32.97
2023-05-20T08:30:19.735Z,32.99
2023-05-20T08:31:19.733Z,32.96
2023-05-20T08:32:19.710Z,33.03
2023-05-20T08:33:19.684Z,33.01
2023-05-20T08:34:19.692Z,33.01
2023-05-20T08:35:20.888Z,32.96
2023-05-20T08:36:19.670Z,33.00
2023-05-20T08:37:19.687Z,33.00
2023-05-20T08:38:19.687Z,32.94
2023-05-20T08:39:19.662Z,33.00
2023-05-20T08:40:19.623Z,32.97
2023-05-20T08:41:19.636Z,32.97
2023-05-20T08:42:19.645Z,32.97
2023-05-20T08:43:19.621Z,32.95
2023-05-20T08:44:19.666Z,32.99
2023-05-20T08:45:19.585Z,33.00
2023-05-20T08:46:19.666Z,32.99
2023-05-20T08:47:19.603Z,32.97
2023-05-20T08:48:19.593Z,33.00
2023-05-20T08:49:19.622Z,33.02
2023-05-20T08:50:19.580Z,33.00
2023-05-20T08:51:20.352Z,33.00
2023-05-20T08:52:19.569Z,32.97
2023-05-20T08:53:19.589Z,32.93
2023-05-20T08:54:19.568Z,33.01
2023-05-20T08:55:19.555Z,33.00
2023-05-20T08:56:19.576Z,32.96
2023-05-20T08:57:19.578Z,32.96
2023-05-20T08:58:19.634Z,33.00
2023-05-20T08:59:19.577Z,32.98
2023-05-20T09:00:19.608Z,32.97
2023-05-20T09:01:19.629Z,33.01
2023-05-20T09:02:19.575Z,32.97
2023-05-20T09:03:19.594Z,32.96
2023-05-20T09:04:19.593Z,33.00
2023-05-20T09:05:19.695Z,32.96
2023-05-20T09:06:19.560Z,33.00
2023-05-20T09:07:19.602Z,32.95
2023-05-20T09:08:19.636Z,32.99
2023-05-20T09:09:19.589Z,32.97
2023-05-20T09:10:19.645Z,33.02
2023-05-20T09:11:19.571Z,32.96
2023-05-20T09:12:19.601Z,32.96
2023-05-20T09:13:20.234Z,32.99
2023-05-20T09:14:19.602Z,33.00
2023-05-20T09:15:19.606Z,32.92
2023-05-20T09:16:19.646Z,32.97
2023-05-20T09:17:19.609Z,32.95
2023-05-20T09:18:19.618Z,32.95
2023-05-20T09:19:20.868Z,32.99
2023-05-20T09:20:19.618Z,32.94
2023-05-20T09:21:19.554Z,32.94
2023-05-20T09:22:19.647Z,32.94
2023-05-20T09:23:19.575Z,32.92
2023-05-20T09:24:19.541Z,32.98
2023-05-20T09:25:21.099Z,32.91
2023-05-20T09:26:19.566Z,32.87
2023-05-20T09:27:19.534Z,32.92
2023-05-20T09:28:19.542Z,32.93
2023-05-20T09:29:19.522Z,32.90
2023-05-20T09:30:19.540Z,32.90
2023-05-20T09:31:19.551Z,32.90
2023-05-20T09:32:19.533Z,32.89
2023-05-20T09:33:19.520Z,32.90
2023-05-20T09:34:19.518Z,32.87
2023-05-20T09:35:19.488Z,32.86
2023-05-20T09:36:19.482Z,32.87
2023-05-20T09:37:19.465Z,32.87
2023-05-20T09:38:19.458Z,32.86
2023-05-20T09:39:19.480Z,32.86
2023-05-20T09:40:19.539Z,32.90
2023-05-20T09:41:19.460Z,32.90
2023-05-20T09:42:19.446Z,32.83
2023-05-20T09:43:19.466Z,32.87
2023-05-20T09:44:19.416Z,32.82
2023-05-20T09:45:19.473Z,32.85
2023-05-20T09:46:19.458Z,32.90
2023-05-20T09:47:19.391Z,32.90
2023-05-20T09:48:19.435Z,32.89
2023-05-20T09:49:19.396Z,32.89
2023-05-20T09:50:19.467Z,32.94
2023-05-20T09:51:19.407Z,32.94
2023-05-20T09:52:21.354Z,32.91
2023-05-20T09:53:19.345Z,32.93
2023-05-20T09:54:19.363Z,32.90
2023-05-20T09:55:19.359Z,32.89
2023-05-20T09:56:19.344Z,32.85
2023-05-20T09:57:19.341Z,32.87
2023-05-20T09:58:19.314Z,32.88
2023-05-20T09:59:19.335Z,32.83
2023-05-20T10:00:20.133Z,32.90
2023-05-20T10:01:19.347Z,32.86
2023-05-20T10:02:19.347Z,32.83
2023-05-20T10:03:19.404Z,32.88
2023-05-20T10:04:19.302Z,32.85
2023-05-20T10:05:19.293Z,32.88
2023-05-20T10:06:19.259Z,32.86
2023-05-20T10:07:20.965Z,32.85
2023-05-20T10:08:20.274Z,32.86
2023-05-20T10:09:19.266Z,32.86
2023-05-20T10:10:19.276Z,32.89
2023-05-20T10:11:19.243Z,32.86
2023-05-20T10:12:19.222Z,32.85
2023-05-20T10:13:19.205Z,32.89
2023-05-20T10:14:19.224Z,32.86
2023-05-20T10:15:19.231Z,32.89
2023-05-20T10:16:19.232Z,32.84
2023-05-20T10:17:19.241Z,32.90
2023-05-20T10:18:19.190Z,32.90
2023-05-20T10:19:19.276Z,32.93
2023-05-20T10:20:19.166Z,32.90
2023-05-20T10:21:19.176Z,32.89
2023-05-20T10:22:19.170Z,32.90
2023-05-20T10:23:19.165Z,32.88
2023-05-20T10:24:19.147Z,32.88
2023-05-20T10:25:19.142Z,32.88
2023-05-20T10:26:19.157Z,32.82
2023-05-20T10:27:19.130Z,32.86
2023-05-20T10:28:19.120Z,32.86
2023-05-20T10:29:19.134Z,32.85
2023-05-20T10:30:19.121Z,32.84
2023-05-20T10:31:19.116Z,32.88
2023-05-20T10:32:19.091Z,32.84
2023-05-20T10:33:19.128Z,32.82
2023-05-20T10:34:19.132Z,32.83
2023-05-20T10:35:19.087Z,32.84
2023-05-20T10:36:19.068Z,32.86
2023-05-20T10:37:19.040Z,32.83
2023-05-20T10:38:19.059Z,32.81
2023-05-20T10:39:19.066Z,32.79
2023-05-20T10:40:19.082Z,32.80
2023-05-20T10:41:19.016Z,32.80
2023-05-20T10:42:19.021Z,32.75
2023-05-20T10:43:19.005Z,32.80
2023-05-20T10:44:19.025Z,32.78
2023-05-20T10:45:19.044Z,32.76
2023-05-20T10:46:31.137Z,32.73
2023-05-20T10:47:25.358Z,32.74
2023-05-20T10:48:20.116Z,32.72
2023-05-20T10:49:19.188Z,32.72
2023-05-20T10:50:19.081Z,32.74
2023-05-20T10:51:19.049Z,32.74
2023-05-20T10:52:19.057Z,32.71
2023-05-20T10:53:32.351Z,32.76
2023-05-20T10:54:20.048Z,32.70
2023-05-20T10:55:19.037Z,32.67
2023-05-20T10:56:19.018Z,32.70
2023-05-20T10:57:19.021Z,32.70
2023-05-20T10:58:18.998Z,32.70
2023-05-20T10:59:19.013Z,32.71
2023-05-20T11:00:18.991Z,32.71
2023-05-20T11:01:19.067Z,32.69
2023-05-20T11:02:18.987Z,32.67
2023-05-20T11:03:19.068Z,32.64
2023-05-20T11:04:18.976Z,32.71
2023-05-20T11:05:18.983Z,32.68
2023-05-20T11:06:18.976Z,32.71
2023-05-20T11:07:18.981Z,32.71
2023-05-20T11:08:27.793Z,32.67
2023-05-20T11:09:20.041Z,32.73
2023-05-20T11:10:19.039Z,32.71
2023-05-20T11:11:19.031Z,32.69
2023-05-20T11:12:18.997Z,32.70
2023-05-20T11:13:19.124Z,32.66
2023-05-20T11:14:19.008Z,32.69
2023-05-20T11:15:18.997Z,32.66
2023-05-20T11:16:19.044Z,32.69
2023-05-20T11:17:18.995Z,32.70
2023-05-20T11:18:19.220Z,32.66
2023-05-20T11:19:19.162Z,32.68
2023-05-20T11:20:19.097Z,32.68
2023-05-20T11:21:19.161Z,32.64
2023-05-20T11:22:19.202Z,32.65
2023-05-20T11:23:19.273Z,32.65
2023-05-20T11:24:19.260Z,32.64
2023-05-20T11:25:19.323Z,32.67
2023-05-20T11:26:19.377Z,32.65
2023-05-20T11:27:19.391Z,32.60
2023-05-20T11:28:19.469Z,32.60
2023-05-20T11:29:19.575Z,32.57
2023-05-20T11:30:19.574Z,32.56
2023-05-20T11:31:19.619Z,32.61
2023-05-20T11:32:19.749Z,32.64
2023-05-20T11:33:19.702Z,32.60
2023-05-20T11:34:19.672Z,32.59
2023-05-20T11:35:19.677Z,32.53
2023-05-20T11:36:27.590Z,32.56
2023-05-20T11:37:20.736Z,32.55
2023-05-20T11:38:19.722Z,32.59
2023-05-20T11:39:19.697Z,32.56
2023-05-20T11:40:19.683Z,32.59
2023-05-20T11:41:19.701Z,32.55
2023-05-20T11:42:19.677Z,32.56
2023-05-20T11:43:19.642Z,32.59
2023-05-20T11:44:19.678Z,32.59
2023-05-20T11:45:19.651Z,32.60
2023-05-20T11:46:19.685Z,32.56
2023-05-20T11:47:22.549Z,32.52
2023-05-20T11:48:19.696Z,32.55
2023-05-20T11:49:19.643Z,32.51
2023-05-20T11:50:19.607Z,32.50
2023-05-20T11:51:19.612Z,32.54
2023-05-20T11:52:19.595Z,32.55
2023-05-20T11:53:19.587Z,32.52
2023-05-20T11:54:19.613Z,32.54
2023-05-20T11:55:19.598Z,32.51
2023-05-20T11:56:19.582Z,32.54
2023-05-20T11:57:19.603Z,32.54
2023-05-20T11:58:19.560Z,32.54
2023-05-20T11:59:19.609Z,32.54
2023-05-20T12:00:19.557Z,32.48
2023-05-20T12:01:22.741Z,32.52
2023-05-20T12:02:19.567Z,32.55
2023-05-20T12:03:19.684Z,32.53
2023-05-20T12:04:19.632Z,32.54
2023-05-20T12:05:19.523Z,32.51
2023-05-20T12:06:19.498Z,32.47
2023-05-20T12:07:19.514Z,32.56
2023-05-20T12:08:19.513Z,32.46
2023-05-20T12:09:19.542Z,32.50
2023-05-20T12:10:19.483Z,32.50
2023-05-20T12:11:19.512Z,32.48
2023-05-20T12:12:19.488Z,32.53
2023-05-20T12:13:19.532Z,32.48
2023-05-20T12:14:19.546Z,32.53
2023-05-20T12:15:19.511Z,32.45
2023-05-20T12:16:19.483Z,32.54
2023-05-20T12:17:19.467Z,32.49
2023-05-20T12:18:19.463Z,32.50
2023-05-20T12:19:19.476Z,32.52
2023-05-20T12:20:19.437Z,32.54
2023-05-20T12:21:19.402Z,32.47
2023-05-20T12:22:19.391Z,32.49
2023-05-20T12:23:19.406Z,32.50
2023-05-20T12:24:19.412Z,32.50
2023-05-20T12:25:19.383Z,32.55
2023-05-20T12:26:19.401Z,32.53
2023-05-20T12:27:19.443Z,32.55
2023-05-20T12:28:19.506Z,32.58
2023-05-20T12:29:19.597Z,32.58
2023-05-20T12:30:19.588Z,32.57
2023-05-20T12:31:19.688Z,32.54
2023-05-20T12:32:19.768Z,32.53
2023-05-20T12:33:19.780Z,32.58
2023-05-20T12:34:19.846Z,32.59
2023-05-20T12:35:19.932Z,32.54
2023-05-20T12:36:20.034Z,32.61
2023-05-20T12:37:20.049Z,32.55
2023-05-20T12:38:20.097Z,32.59
2023-05-20T12:39:20.154Z,32.48
2023-05-20T12:40:20.195Z,32.55
2023-05-20T12:41:20.317Z,32.56
2023-05-20T12:42:20.309Z,32.54
2023-05-20T12:43:20.356Z,32.56
2023-05-20T12:44:20.436Z,32.54
2023-05-20T12:45:20.503Z,32.55
2023-05-20T12:46:20.628Z,32.57
2023-05-20T12:47:20.639Z,32.52
2023-05-20T12:48:20.692Z,32.54
2023-05-20T12:49:20.779Z,32.52
2023-05-20T12:50:20.814Z,32.56
2023-05-20T12:51:20.849Z,32.51
2023-05-20T12:52:22.729Z,32.52